Time,TemperatureF,DewpointF,PressureIn,WindDirection,WindDirectionDegrees,WindSpeedMPH,WindSpeedGustMPH,Humidity,HourlyPrecipIn,Conditions,Clouds,dailyrainin,SolarRadiationWatts/m^2,SoftwareType,DateUTC
2013-07-16 00:06:00,74.2,73.0,30.09,SE,134,0.0,-999.0,97,-99.99,,,0.00,0,weatherlink.com 1.10,2013-07-16 04:06:00,
2013-07-16 00:20:00,74.0,73.0,30.09,SE,134,0.0,-999.0,98,-99.99,,,0.00,0,weatherlink.com 1.10,2013-07-16 04:20:00,
2013-07-16 00:35:00,74.0,73.0,30.09,SE,134,0.0,-999.0,98,-99.99,,,0.00,0,weatherlink.com 1.10,2013-07-16 04:35:00,
2013-07-16 00:50:00,73.9,74.0,30.09,SE,134,0.0,-999.0,99,-99.99,,,0.00,0,weatherlink.com 1.10,2013-07-16 04:50:00,
2013-07-16 01:05:00,73.9,74.0,30.08,SE,134,0.0,-999.0,99,-99.99,,,0.00,0,weatherlink.com 1.10,2013-07-16 05:05:00,
2013-07-16 01:21:00,73.9,74.0,30.08,SE,134,0.0,-999.0,100,-99.99,,,0.00,0,weatherlink.com 1.10,2013-07-16 05:21:00,
2013-07-16 01:35:00,73.9,74.0,30.08,SE,134,0.0,-999.0,100,-99.99,,,0.00,0,weatherlink.com 1.10,2013-07-16 05:35:00,
2013-07-16 01:50:00,73.9,74.0,30.07,SE,134,0.0,-999.0,100,-99.99,,,0.00,0,weatherlink.com 1.10,2013-07-16 05:50:00,
2013-07-16 02:05:00,73.7,74.0,30.07,SE,134,0.0,-999.0,100,-99.99,,,0.00,0,weatherlink.com 1.10,2013-07-16 06:05:00,
2013-07-16 02:20:00,73.5,74.0,30.08,SE,134,0.0,-999.0,100,-99.99,,,0.00,0,weatherlink.com 1.10,2013-07-16 06:20:00,
2013-07-16 02:35:00,73.2,73.0,30.08,SE,134,0.0,-999.0,100,-99.99,,,0.00,0,weatherlink.com 1.10,2013-07-16 06:35:00,
2013-07-16 02:50:00,73.2,73.0,30.08,East,86,0.0,-999.0,100,-99.99,,,0.00,0,weatherlink.com 1.10,2013-07-16 06:50:00,
2013-07-16 03:05:00,73.3,73.0,30.07,ENE,78,0.0,-999.0,100,-99.99,,,0.00,0,weatherlink.com 1.10,2013-07-16 07:05:00,
2013-07-16 03:20:00,73.3,73.0,30.07,ENE,70,0.0,-999.0,100,-99.99,,,0.00,0,weatherlink.com 1.10,2013-07-16 07:20:00,
2013-07-16 03:35:00,73.3,73.0,30.06,NE,52,0.0,-999.0,100,-99.99,,,0.00,0,weatherlink.com 1.10,2013-07-16 07:35:00,
2013-07-16 03:50:00,73.2,73.0,30.06,NE,51,0.0,-999.0,100,-99.99,,,0.00,0,weatherlink.com 1.10,2013-07-16 07:50:00,
2013-07-16 04:05:00,73.2,73.0,30.06,NE,51,0.0,-999.0,100,-99.99,,,0.00,0,weatherlink.com 1.10,2013-07-16 08:05:00,
2013-07-16 04:20:00,73.2,73.0,30.07,ENE,74,0.0,-999.0,100,-99.99,,,0.00,0,weatherlink.com 1.10,2013-07-16 08:20:00,
2013-07-16 04:35:00,73.0,73.0,30.07,ENE,74,0.0,-999.0,100,-99.99,,,0.00,0,weatherlink.com 1.10,2013-07-16 08:35:00,
2013-07-16 04:50:00,73.0,73.0,30.07,ENE,67,1.0,-999.0,100,-99.99,,,0.00,0,weatherlink.com 1.10,2013-07-16 08:50:00,
2013-07-16 05:05:00,73.2,73.0,30.07,ENE,63,0.0,-999.0,100,-99.99,,,0.01,0,weatherlink.com 1.10,2013-07-16 09:05:00,
2013-07-16 05:20:00,73.2,73.0,30.07,NE,55,1.0,-999.0,100,-99.99,,,0.01,0,weatherlink.com 1.10,2013-07-16 09:20:00,
2013-07-16 05:35:00,73.2,73.0,30.08,NE,51,1.0,-999.0,100,-99.99,,,0.01,0,weatherlink.com 1.10,2013-07-16 09:35:00,
2013-07-16 05:50:00,73.0,73.0,30.08,ENE,57,0.0,-999.0,100,-99.99,,,0.01,0,weatherlink.com 1.10,2013-07-16 09:50:00,
2013-07-16 06:05:00,73.0,73.0,30.08,ENE,59,0.0,-999.0,100,-99.99,,,0.01,0,weatherlink.com 1.10,2013-07-16 10:05:00,
2013-07-16 06:20:00,73.0,73.0,30.08,NE,51,0.0,-999.0,100,-99.99,,,0.01,0,weatherlink.com 1.10,2013-07-16 10:20:00,
2013-07-16 06:35:00,73.0,73.0,30.08,ENE,59,0.0,-999.0,100,-99.99,,,0.01,0,weatherlink.com 1.10,2013-07-16 10:35:00,
2013-07-16 06:50:00,73.2,73.0,30.08,ENE,76,4.0,-999.0,100,-99.99,,,0.01,7,weatherlink.com 1.10,2013-07-16 10:50:00,
2013-07-16 07:06:00,73.3,73.0,30.08,ENE,58,3.0,-999.0,100,-99.99,,,0.01,18,weatherlink.com 1.10,2013-07-16 11:06:00,
2013-07-16 07:20:00,73.5,74.0,30.09,ENE,63,3.0,-999.0,100,-99.99,,,0.01,46,weatherlink.com 1.10,2013-07-16 11:20:00,
2013-07-16 07:35:00,74.0,74.0,30.09,NE,50,0.0,-999.0,100,-99.99,,,0.01,84,weatherlink.com 1.10,2013-07-16 11:35:00,
2013-07-16 07:51:00,74.9,75.0,30.09,ENE,65,0.0,-999.0,100,-99.99,,,0.01,121,weatherlink.com 1.10,2013-07-16 11:51:00,
2013-07-16 08:05:00,75.8,75.0,30.10,NE,54,0.0,-999.0,97,-99.99,,,0.01,167,weatherlink.com 1.10,2013-07-16 12:05:00,
2013-07-16 08:20:00,76.7,75.0,30.09,ENE,59,0.0,-999.0,95,-99.99,,,0.01,216,weatherlink.com 1.10,2013-07-16 12:20:00,
2013-07-16 08:35:00,77.9,76.0,30.11,ESE,105,5.0,-999.0,92,-99.99,,,0.01,271,weatherlink.com 1.10,2013-07-16 12:35:00,
2013-07-16 08:50:00,78.5,75.0,30.11,ENE,70,0.0,-999.0,90,-99.99,,,0.01,323,weatherlink.com 1.10,2013-07-16 12:50:00,
2013-07-16 09:05:00,79.4,76.0,30.11,ESE,107,4.0,-999.0,88,-99.99,,,0.01,410,weatherlink.com 1.10,2013-07-16 13:05:00,
2013-07-16 09:20:00,80.3,76.0,30.11,East,84,2.0,-999.0,86,-99.99,,,0.01,237,weatherlink.com 1.10,2013-07-16 13:20:00,
2013-07-16 09:35:00,80.7,76.0,30.11,SE,126,9.0,-999.0,85,-99.99,,,0.01,621,weatherlink.com 1.10,2013-07-16 13:35:00,
2013-07-16 09:51:00,81.4,75.0,30.11,ENE,69,3.0,-999.0,82,-99.99,,,0.01,202,weatherlink.com 1.10,2013-07-16 13:51:00,
2013-07-16 10:05:00,81.4,74.0,30.11,ENE,71,5.0,-999.0,79,-99.99,,,0.01,206,weatherlink.com 1.10,2013-07-16 14:05:00,
2013-07-16 10:20:00,82.2,74.0,30.12,ESE,110,1.0,-999.0,77,-99.99,,,0.01,323,weatherlink.com 1.10,2013-07-16 14:20:00,
2013-07-16 10:36:00,83.2,75.0,30.12,ESE,123,9.0,-999.0,75,-99.99,,,0.01,779,weatherlink.com 1.10,2013-07-16 14:36:00,
2013-07-16 10:50:00,83.8,74.0,30.12,East,92,9.0,-999.0,73,-99.99,,,0.01,301,weatherlink.com 1.10,2013-07-16 14:50:00,
2013-07-16 11:05:00,83.8,73.0,30.12,East,86,8.0,-999.0,71,-99.99,,,0.01,842,weatherlink.com 1.10,2013-07-16 15:05:00,
2013-07-16 11:20:00,84.1,72.0,30.12,SE,124,7.0,-999.0,68,-99.99,,,0.01,274,weatherlink.com 1.10,2013-07-16 15:20:00,
2013-07-16 11:35:00,85.1,72.0,30.12,East,87,7.0,-999.0,64,-99.99,,,0.01,895,weatherlink.com 1.10,2013-07-16 15:35:00,
2013-07-16 11:50:00,84.9,72.0,30.11,ESE,120,4.0,-999.0,65,-99.99,,,0.01,218,weatherlink.com 1.10,2013-07-16 15:50:00,
2013-07-16 12:05:00,85.9,72.0,30.12,East,83,0.0,-999.0,64,-99.99,,,0.01,979,weatherlink.com 1.10,2013-07-16 16:05:00,
2013-07-16 12:20:00,84.9,72.0,30.11,ENE,69,6.0,-999.0,65,-99.99,,,0.01,288,weatherlink.com 1.10,2013-07-16 16:20:00,
2013-07-16 12:36:00,86.1,73.0,30.11,SSE,159,0.0,-999.0,64,-99.99,,,0.01,1153,weatherlink.com 1.10,2013-07-16 16:36:00,
2013-07-16 12:50:00,87.0,72.0,30.11,ESE,111,5.0,-999.0,62,-99.99,,,0.01,1023,weatherlink.com 1.10,2013-07-16 16:50:00,
2013-07-16 13:05:00,85.7,72.0,30.10,ENE,71,3.0,-999.0,64,-99.99,,,0.01,1076,weatherlink.com 1.10,2013-07-16 17:05:00,
2013-07-16 13:20:00,87.4,72.0,30.09,East,90,5.0,-999.0,60,-99.99,,,0.01,1053,weatherlink.com 1.10,2013-07-16 17:20:00,
2013-07-16 13:36:00,87.0,74.0,30.10,ESE,103,6.0,-999.0,65,-99.99,,,0.01,160,weatherlink.com 1.10,2013-07-16 17:36:00,
2013-07-16 13:51:00,85.1,74.0,30.10,ESE,115,0.0,-999.0,69,-99.99,,,0.01,142,weatherlink.com 1.10,2013-07-16 17:51:00,
2013-07-16 14:05:00,75.4,69.0,30.11,SE,146,11.0,-999.0,80,-99.99,,,0.08,23,weatherlink.com 1.10,2013-07-16 18:05:00,
2013-07-16 14:20:00,72.3,71.0,30.14,SSE,161,0.0,-999.0,95,-99.99,,,0.20,47,weatherlink.com 1.10,2013-07-16 18:20:00,
2013-07-16 14:36:00,73.0,72.0,30.13,SSE,154,6.0,-999.0,97,-99.99,,,0.21,16,weatherlink.com 1.10,2013-07-16 18:36:00,
2013-07-16 14:51:00,72.8,72.0,30.12,South,191,4.0,-999.0,97,-99.99,,,0.23,30,weatherlink.com 1.10,2013-07-16 18:51:00,
2013-07-16 15:06:00,72.7,72.0,30.13,SE,146,2.0,-999.0,98,-99.99,,,0.23,39,weatherlink.com 1.10,2013-07-16 19:06:00,
2013-07-16 15:21:00,72.7,72.0,30.13,ESE,105,0.0,-999.0,98,-99.99,,,0.23,51,weatherlink.com 1.10,2013-07-16 19:21:00,
2013-07-16 15:36:00,72.5,72.0,30.11,SSE,158,0.0,-999.0,98,-99.99,,,0.23,47,weatherlink.com 1.10,2013-07-16 19:36:00,
2013-07-16 15:51:00,72.7,72.0,30.10,SSE,158,0.0,-999.0,99,-99.99,,,0.23,47,weatherlink.com 1.10,2013-07-16 19:51:00,
2013-07-16 16:20:00,73.0,73.0,30.10,ESE,108,0.0,-999.0,99,-99.99,,,0.24,105,weatherlink.com 1.10,2013-07-16 20:20:00,
2013-07-16 16:36:00,73.3,73.0,30.11,NE,51,0.0,-999.0,99,-99.99,,,0.24,142,weatherlink.com 1.10,2013-07-16 20:36:00,
2013-07-16 16:51:00,73.7,73.0,30.10,ENE,59,2.0,-999.0,99,-99.99,,,0.24,149,weatherlink.com 1.10,2013-07-16 20:51:00,
2013-07-16 17:06:00,74.0,74.0,30.10,ENE,71,2.0,-999.0,99,-99.99,,,0.24,139,weatherlink.com 1.10,2013-07-16 21:06:00,
2013-07-16 17:21:00,74.4,74.0,30.10,NE,46,1.0,-999.0,99,-99.99,,,0.24,141,weatherlink.com 1.10,2013-07-16 21:21:00,
2013-07-16 17:36:00,74.6,74.0,30.09,ENE,58,0.0,-999.0,98,-99.99,,,0.24,135,weatherlink.com 1.10,2013-07-16 21:36:00,
2013-07-16 17:51:00,74.6,74.0,30.09,East,98,0.0,-999.0,97,-99.99,,,0.24,135,weatherlink.com 1.10,2013-07-16 21:51:00,
2013-07-16 18:06:00,74.7,74.0,30.09,NE,56,1.0,-999.0,96,-99.99,,,0.24,125,weatherlink.com 1.10,2013-07-16 22:06:00,
2013-07-16 18:21:00,75.1,74.0,30.09,ENE,67,0.0,-999.0,95,-99.99,,,0.24,118,weatherlink.com 1.10,2013-07-16 22:21:00,
2013-07-16 18:36:00,75.3,74.0,30.09,NE,55,0.0,-999.0,95,-99.99,,,0.24,104,weatherlink.com 1.10,2013-07-16 22:36:00,
2013-07-16 18:51:00,75.3,74.0,30.08,NE,51,0.0,-999.0,94,-99.99,,,0.24,98,weatherlink.com 1.10,2013-07-16 22:51:00,
2013-07-16 19:06:00,75.3,74.0,30.09,ENE,60,3.0,-999.0,94,-99.99,,,0.24,81,weatherlink.com 1.10,2013-07-16 23:06:00,
2013-07-16 19:21:00,75.3,74.0,30.10,ENE,66,0.0,-999.0,94,-99.99,,,0.24,63,weatherlink.com 1.10,2013-07-16 23:21:00,
2013-07-16 19:36:00,75.3,74.0,30.10,ENE,66,0.0,-999.0,95,-99.99,,,0.24,44,weatherlink.com 1.10,2013-07-16 23:36:00,
2013-07-16 19:51:00,75.1,74.0,30.11,ENE,66,0.0,-999.0,96,-99.99,,,0.24,28,weatherlink.com 1.10,2013-07-16 23:51:00,
2013-07-16 20:06:00,74.7,74.0,30.11,ENE,67,0.0,-999.0,97,-99.99,,,0.24,14,weatherlink.com 1.10,2013-07-17 00:06:00,
2013-07-16 20:21:00,74.6,74.0,30.11,ENE,57,0.0,-999.0,97,-99.99,,,0.24,0,weatherlink.com 1.10,2013-07-17 00:21:00,
2013-07-16 20:36:00,74.2,74.0,30.11,NE,51,0.0,-999.0,98,-99.99,,,0.24,0,weatherlink.com 1.10,2013-07-17 00:36:00,
2013-07-16 20:51:00,73.9,73.0,30.11,NE,51,0.0,-999.0,98,-99.99,,,0.24,0,weatherlink.com 1.10,2013-07-17 00:51:00,
2013-07-16 21:06:00,73.7,73.0,30.11,NE,43,0.0,-999.0,99,-99.99,,,0.24,0,weatherlink.com 1.10,2013-07-17 01:06:00,
2013-07-16 21:21:00,73.5,73.0,30.12,NE,43,0.0,-999.0,99,-99.99,,,0.24,0,weatherlink.com 1.10,2013-07-17 01:21:00,
2013-07-16 21:36:00,73.5,74.0,30.13,NE,43,0.0,-999.0,100,-99.99,,,0.24,0,weatherlink.com 1.10,2013-07-17 01:36:00,
2013-07-16 21:51:00,73.5,74.0,30.12,NE,43,0.0,-999.0,100,-99.99,,,0.24,0,weatherlink.com 1.10,2013-07-17 01:51:00,
2013-07-16 22:06:00,73.3,73.0,30.13,NE,43,0.0,-999.0,100,-99.99,,,0.24,0,weatherlink.com 1.10,2013-07-17 02:06:00,
2013-07-16 22:21:00,73.3,73.0,30.13,NE,43,0.0,-999.0,100,-99.99,,,0.24,0,weatherlink.com 1.10,2013-07-17 02:21:00,
2013-07-16 22:36:00,73.2,73.0,30.12,NE,43,0.0,-999.0,100,-99.99,,,0.24,0,weatherlink.com 1.10,2013-07-17 02:36:00,
2013-07-16 22:51:00,73.2,73.0,30.12,NE,43,0.0,-999.0,100,-99.99,,,0.24,0,weatherlink.com 1.10,2013-07-17 02:51:00,
2013-07-16 23:06:00,72.8,73.0,30.14,NE,43,0.0,-999.0,100,-99.99,,,0.24,0,weatherlink.com 1.10,2013-07-17 03:06:00,
2013-07-16 23:21:00,72.8,73.0,30.13,NE,43,0.0,-999.0,100,-99.99,,,0.24,0,weatherlink.com 1.10,2013-07-17 03:21:00,
2013-07-16 23:36:00,72.7,73.0,30.13,NE,43,0.0,-999.0,100,-99.99,,,0.24,0,weatherlink.com 1.10,2013-07-17 03:36:00,
2013-07-16 23:51:00,72.5,73.0,30.13,NE,43,0.0,-999.0,100,-99.99,,,0.24,0,weatherlink.com 1.10,2013-07-17 03:51:00,